createdAt,value
2023-04-20T00:00:25.547Z,9.60
2023-04-20T00:03:18.466Z,9.52
2023-04-20T00:05:49.334Z,9.82
2023-04-20T00:08:18.538Z,9.90
2023-04-20T00:10:47.759Z,10.45
2023-04-20T00:13:16.825Z,9.82
2023-04-20T00:15:45.757Z,9.77
2023-04-20T00:18:16.150Z,9.63
2023-04-20T00:20:44.862Z,9.38
2023-04-20T00:23:13.806Z,8.80
2023-04-20T00:25:42.390Z,9.93
2023-04-20T00:28:11.669Z,8.77
2023-04-20T00:30:42.714Z,9.10
2023-04-20T00:33:12.196Z,9.43
2023-04-20T00:35:42.194Z,9.73
2023-04-20T00:38:11.155Z,8.88
2023-04-20T00:40:39.867Z,8.80
2023-04-20T00:43:12.893Z,9.57
2023-04-20T00:45:42.304Z,9.23
2023-04-20T00:48:12.436Z,8.40
2023-04-20T00:50:43.204Z,9.10
2023-04-20T00:53:14.001Z,8.25
2023-04-20T00:55:45.715Z,9.10
2023-04-20T00:58:15.848Z,9.77
2023-04-20T01:00:44.661Z,9.45
2023-04-20T01:03:14.746Z,8.88
2023-04-20T01:05:45.034Z,8.38
2023-04-20T01:08:13.924Z,8.95
2023-04-20T01:10:42.546Z,8.70
2023-04-20T01:13:11.499Z,9.25
2023-04-20T01:15:40.324Z,9.20
2023-04-20T01:18:11.803Z,8.75
2023-04-20T01:20:40.770Z,9.23
2023-04-20T01:23:11.043Z,8.90
2023-04-20T01:25:39.910Z,9.60
2023-04-20T01:28:09.455Z,9.18
2023-04-20T01:30:39.348Z,8.40
2023-04-20T01:33:08.386Z,8.38
2023-04-20T01:35:37.073Z,9.15
2023-04-20T01:38:06.131Z,8.65
2023-04-20T01:40:36.454Z,9.10
2023-04-20T01:43:05.471Z,8.63
2023-04-20T01:45:34.237Z,8.98
2023-04-20T01:48:03.670Z,8.32
2023-04-20T01:50:32.402Z,8.13
2023-04-20T01:53:01.374Z,8.52
2023-04-20T01:55:30.058Z,8.98
2023-04-20T01:58:00.499Z,8.48
2023-04-20T02:00:29.148Z,8.80
2023-04-20T02:02:58.158Z,8.95
2023-04-20T02:05:27.356Z,9.75
2023-04-20T02:07:59.685Z,8.95
2023-04-20T02:10:28.379Z,8.52
2023-04-20T02:12:57.522Z,9.52
2023-04-20T02:15:27.885Z,9.32
2023-04-20T02:17:57.433Z,9.43
2023-04-20T02:20:26.402Z,8.77
2023-04-20T02:22:55.458Z,8.75
2023-04-20T02:25:24.528Z,9.32
2023-04-20T02:27:53.641Z,9.23
2023-04-20T02:30:22.532Z,9.07
2023-04-20T02:32:52.963Z,9.40
2023-04-20T02:35:21.661Z,9.15
2023-04-20T02:37:51.373Z,8.55
2023-04-20T02:40:20.143Z,9.38
2023-04-20T02:42:49.367Z,8.88
2023-04-20T02:45:19.049Z,9.45
2023-04-20T02:47:49.360Z,8.60
2023-04-20T02:50:20.894Z,8.52
2023-04-20T02:53:06.749Z,9.27
2023-04-20T02:55:38.135Z,9.35
2023-04-20T02:58:17.707Z,9.80
2023-04-20T03:01:11.816Z,9.70
2023-04-20T03:03:41.944Z,9.38
2023-04-20T03:06:15.004Z,9.45
2023-04-20T03:08:49.172Z,9.75
2023-04-20T03:11:36.060Z,10.02
2023-04-20T03:14:06.351Z,9.57
2023-04-20T03:16:36.062Z,9.52
2023-04-20T03:19:06.563Z,10.43
2023-04-20T03:21:37.340Z,9.32
2023-04-20T03:24:07.339Z,10.30
2023-04-20T03:26:36.471Z,9.80
2023-04-20T03:29:15.068Z,9.35
2023-04-20T03:31:43.915Z,9.70
2023-04-20T03:34:13.833Z,9.85
2023-04-20T03:36:44.526Z,9.52
2023-04-20T03:39:13.440Z,9.65
2023-04-20T03:41:42.307Z,10.07
2023-04-20T03:44:11.350Z,11.00
2023-04-20T03:46:40.050Z,9.77
2023-04-20T03:49:08.956Z,10.25
2023-04-20T03:51:37.665Z,9.93
2023-04-20T03:54:09.561Z,9.75
2023-04-20T03:56:38.723Z,9.98
2023-04-20T03:59:07.694Z,10.00
2023-04-20T04:01:38.692Z,10.57
2023-04-20T04:04:07.990Z,11.10
2023-04-20T04:06:37.235Z,10.25
2023-04-20T04:09:06.366Z,9.63
2023-04-20T04:11:36.542Z,9.77
2023-04-20T04:14:06.117Z,10.70
2023-04-20T04:16:37.692Z,9.88
2023-04-20T04:19:06.744Z,10.73
2023-04-20T04:21:35.987Z,9.75
2023-04-20T04:24:07.613Z,10.20
2023-04-20T04:26:59.123Z,10.05
2023-04-20T04:29:29.964Z,10.23
2023-04-20T04:32:05.287Z,10.27
2023-04-20T04:34:34.806Z,10.60
2023-04-20T04:37:04.473Z,11.13
2023-04-20T04:39:47.780Z,10.52
2023-04-20T04:42:30.213Z,10.57
2023-04-20T04:45:02.458Z,10.70
2023-04-20T04:47:36.885Z,11.05
2023-04-20T04:50:07.637Z,10.90
2023-04-20T04:52:36.542Z,10.88
2023-04-20T04:55:08.502Z,10.25
2023-04-20T04:57:39.322Z,11.63
2023-04-20T05:00:12.044Z,11.50
2023-04-20T05:02:41.377Z,11.45
2023-04-20T05:05:10.942Z,12.13
2023-04-20T05:07:40.221Z,11.25
2023-04-20T05:10:10.030Z,10.75
2023-04-20T05:12:40.776Z,11.27
2023-04-20T05:15:11.159Z,10.57
2023-04-20T05:17:39.892Z,10.93
2023-04-20T05:20:10.777Z,10.65
2023-04-20T05:22:39.724Z,10.57
2023-04-20T05:25:11.565Z,11.52
2023-04-20T05:27:42.682Z,10.65
2023-04-20T05:30:20.577Z,10.18
2023-04-20T05:32:52.546Z,10.85
2023-04-20T05:35:22.463Z,10.35
2023-04-20T05:37:51.754Z,9.70
2023-04-20T05:40:20.832Z,9.57
2023-04-20T05:42:50.954Z,10.40
2023-04-20T05:45:20.129Z,10.07
2023-04-20T05:47:55.255Z,10.20
2023-04-20T05:50:25.252Z,10.30
2023-04-20T05:52:54.910Z,10.88
2023-04-20T05:55:24.423Z,10.55
2023-04-20T05:57:54.626Z,10.25
2023-04-20T06:00:25.974Z,9.68
2023-04-20T06:02:55.584Z,9.02
2023-04-20T06:05:24.839Z,9.18
2023-04-20T06:07:53.492Z,8.60
2023-04-20T06:10:22.637Z,8.48
2023-04-20T06:12:51.483Z,8.20
2023-04-20T06:15:22.036Z,7.78
2023-04-20T06:17:50.798Z,7.93
2023-04-20T06:20:20.502Z,7.63
2023-04-20T06:22:49.604Z,7.70
2023-04-20T06:25:18.602Z,7.18
2023-04-20T06:27:48.421Z,7.78
2023-04-20T06:30:18.198Z,7.95
2023-04-20T06:32:48.380Z,7.50
2023-04-20T06:35:17.770Z,7.28
2023-04-20T06:37:46.509Z,7.40
2023-04-20T06:40:16.358Z,6.78
2023-04-20T06:42:45.294Z,6.72
2023-04-20T06:45:14.293Z,6.18
2023-04-20T06:47:43.005Z,6.40
2023-04-20T06:50:13.666Z,6.15
2023-04-20T06:52:43.071Z,6.28
2023-04-20T06:55:13.377Z,5.70
2023-04-20T06:57:43.876Z,5.13
2023-04-20T07:00:14.643Z,5.18
2023-04-20T07:02:48.565Z,5.10
2023-04-20T07:05:19.949Z,5.43
2023-04-20T07:07:48.679Z,5.88
2023-04-20T07:10:18.040Z,4.82
2023-04-20T07:12:46.887Z,5.28
2023-04-20T07:15:16.274Z,5.07
2023-04-20T07:17:45.031Z,4.90
2023-04-20T07:20:14.071Z,4.72
2023-04-20T07:22:44.108Z,5.07
2023-04-20T07:25:13.061Z,5.05
2023-04-20T07:27:42.633Z,4.88
2023-04-20T07:30:13.311Z,4.18
2023-04-20T07:32:42.660Z,4.40
2023-04-20T07:35:12.504Z,4.75
2023-04-20T07:37:41.299Z,4.57
2023-04-20T07:40:12.774Z,4.70
2023-04-20T07:42:41.633Z,4.75
2023-04-20T07:45:13.643Z,5.05
2023-04-20T07:47:44.120Z,5.10
2023-04-20T07:50:13.039Z,4.63
2023-04-20T07:52:41.849Z,4.80
2023-04-20T07:55:14.142Z,4.82
2023-04-20T07:57:43.082Z,4.53
2023-04-20T08:00:14.211Z,4.10
2023-04-20T08:02:43.036Z,4.45
2023-04-20T08:05:12.469Z,4.18
2023-04-20T08:07:41.502Z,4.88
2023-04-20T08:10:12.592Z,4.50
2023-04-20T08:12:41.666Z,4.53
2023-04-20T08:15:12.295Z,3.78
2023-04-20T08:17:41.014Z,4.55
2023-04-20T08:20:11.227Z,3.90
2023-04-20T08:22:40.656Z,4.43
2023-04-20T08:25:11.463Z,3.60
2023-04-20T08:27:40.176Z,3.53
2023-04-20T08:30:10.617Z,3.97
2023-04-20T08:32:41.117Z,4.13
2023-04-20T08:35:10.502Z,3.78
2023-04-20T08:37:39.389Z,3.70
2023-04-20T08:40:11.739Z,3.55
2023-04-20T08:42:40.425Z,3.15
2023-04-20T08:45:10.304Z,2.83
2023-04-20T08:47:40.143Z,3.17
2023-04-20T08:50:11.028Z,3.00
2023-04-20T08:52:39.902Z,2.55
2023-04-20T08:55:11.532Z,3.03
2023-04-20T08:57:40.316Z,3.28
2023-04-20T09:00:13.549Z,3.33
2023-04-20T09:02:51.694Z,3.17
2023-04-20T09:05:29.136Z,3.10
2023-04-20T09:08:01.184Z,3.45
2023-04-20T09:10:43.630Z,3.65
2023-04-20T09:13:23.169Z,3.20
2023-04-20T09:15:52.430Z,2.85
2023-04-20T09:18:21.399Z,2.83
2023-04-20T09:20:50.884Z,2.63
2023-04-20T09:23:22.268Z,3.33
2023-04-20T09:25:53.870Z,2.83
2023-04-20T09:28:22.653Z,2.50
2023-04-20T09:30:51.988Z,2.50
2023-04-20T09:33:20.717Z,2.70
2023-04-20T09:35:49.881Z,2.78
2023-04-20T09:38:18.847Z,2.17
2023-04-20T09:40:47.950Z,2.35
2023-04-20T09:43:25.515Z,2.40
2023-04-20T09:45:56.819Z,2.53
2023-04-20T09:48:26.270Z,2.67
2023-04-20T09:50:56.673Z,2.30
2023-04-20T09:53:27.057Z,2.47
2023-04-20T09:55:56.529Z,2.55
2023-04-20T09:58:27.447Z,2.47
2023-04-20T10:00:56.689Z,2.50
2023-04-20T10:03:26.157Z,2.40
2023-04-20T10:05:55.692Z,2.35
2023-04-20T10:08:25.354Z,2.15
2023-04-20T10:10:54.517Z,2.45
2023-04-20T10:13:35.749Z,2.85
2023-04-20T10:16:04.822Z,2.47
2023-04-20T10:18:33.562Z,2.50
2023-04-20T10:21:09.585Z,2.67
2023-04-20T10:23:49.808Z,2.40
2023-04-20T10:26:19.098Z,2.60
2023-04-20T10:28:49.529Z,2.47
2023-04-20T10:31:20.582Z,3.15
2023-04-20T10:33:54.295Z,2.30
2023-04-20T10:36:32.363Z,2.03
2023-04-20T10:39:05.113Z,2.58
2023-04-20T10:41:34.032Z,2.22
2023-04-20T10:44:10.773Z,2.30
2023-04-20T10:46:39.811Z,2.38
2023-04-20T10:49:09.156Z,2.28
2023-04-20T10:51:38.183Z,2.65
2023-04-20T10:54:09.432Z,2.53
2023-04-20T10:56:44.315Z,2.35
2023-04-20T10:59:17.652Z,2.75
2023-04-20T11:01:48.095Z,2.30
2023-04-20T11:04:18.794Z,2.70
2023-04-20T11:06:49.149Z,2.20
2023-04-20T11:09:20.441Z,2.30
2023-04-20T11:12:02.001Z,2.22
2023-04-20T11:14:33.661Z,2.30
2023-04-20T11:17:03.177Z,2.83
2023-04-20T11:19:34.305Z,2.53
2023-04-20T11:22:06.406Z,2.35
2023-04-20T11:24:37.493Z,2.75
2023-04-20T11:27:06.580Z,2.40
2023-04-20T11:29:39.084Z,2.78
2023-04-20T11:32:11.365Z,2.40
2023-04-20T11:34:41.190Z,2.40
2023-04-20T11:37:13.840Z,2.83
2023-04-20T11:39:43.080Z,2.42
2023-04-20T11:42:12.097Z,2.40
2023-04-20T11:44:42.152Z,2.80
2023-04-20T11:47:11.226Z,2.60
2023-04-20T11:49:39.951Z,2.63
2023-04-20T11:52:09.126Z,2.55
2023-04-20T11:54:37.805Z,3.10
2023-04-20T11:57:07.254Z,2.65
2023-04-20T11:59:36.109Z,2.72
2023-04-20T12:02:06.526Z,2.75
2023-04-20T12:04:35.476Z,2.42
2023-04-20T12:07:04.768Z,2.47
2023-04-20T12:09:37.223Z,2.80
2023-04-20T12:12:07.250Z,2.85
2023-04-20T12:14:36.573Z,3.00
2023-04-20T12:17:07.098Z,2.45
2023-04-20T12:19:35.789Z,2.72
2023-04-20T12:22:04.811Z,2.95
2023-04-20T12:24:33.530Z,2.90
2023-04-20T12:27:03.880Z,3.05
2023-04-20T12:29:33.203Z,3.05
2023-04-20T12:32:02.354Z,2.70
2023-04-20T12:34:32.424Z,3.10
2023-04-20T12:37:01.683Z,2.90
2023-04-20T12:39:30.389Z,2.88
2023-04-20T12:41:59.310Z,2.60
2023-04-20T12:44:28.023Z,2.85
2023-04-20T12:46:57.210Z,2.88
2023-04-20T12:49:26.044Z,2.90
2023-04-20T12:51:56.363Z,2.78
2023-04-20T12:54:25.155Z,3.15
2023-04-20T12:56:54.042Z,3.17
2023-04-20T12:59:22.850Z,2.80
2023-04-20T13:01:51.988Z,2.60
2023-04-20T13:04:21.008Z,2.80
2023-04-20T13:06:50.315Z,2.47
2023-04-20T13:09:20.918Z,2.80
2023-04-20T13:11:49.954Z,3.00
2023-04-20T13:14:18.746Z,2.97
2023-04-20T13:16:47.918Z,3.22
2023-04-20T13:19:16.826Z,3.45
2023-04-20T13:21:45.832Z,3.13
2023-04-20T13:24:14.570Z,3.42
2023-04-20T13:26:44.932Z,3.28
2023-04-20T13:29:14.736Z,3.45
2023-04-20T13:31:44.494Z,3.53
2023-04-20T13:34:13.303Z,3.40
2023-04-20T13:36:42.363Z,3.20
2023-04-20T13:39:12.218Z,3.33
2023-04-20T13:41:41.299Z,3.28
2023-04-20T13:44:16.037Z,3.10
2023-04-20T13:46:47.009Z,3.22
2023-04-20T13:49:16.906Z,3.10
2023-04-20T13:51:45.892Z,3.25
2023-04-20T13:54:14.492Z,3.50
2023-04-20T13:56:43.502Z,3.30
2023-04-20T13:59:13.980Z,3.22
2023-04-20T14:01:43.147Z,3.30
2023-04-20T14:04:12.009Z,3.10
2023-04-20T14:06:41.032Z,3.30
2023-04-20T14:09:09.928Z,3.05
2023-04-20T14:11:39.122Z,3.70
2023-04-20T14:14:07.985Z,3.28
2023-04-20T14:16:46.712Z,3.63
2023-04-20T14:19:16.346Z,3.50
2023-04-20T14:21:46.743Z,3.22
2023-04-20T14:24:15.966Z,3.92
2023-04-20T14:26:45.160Z,3.20
2023-04-20T14:29:13.863Z,3.35
2023-04-20T14:31:44.344Z,3.35
2023-04-20T14:34:14.256Z,3.50
2023-04-20T14:36:43.254Z,3.60
2023-04-20T14:39:12.008Z,3.20
2023-04-20T14:41:40.963Z,3.30
2023-04-20T14:44:09.727Z,3.30
2023-04-20T14:46:42.257Z,3.40
2023-04-20T14:49:13.017Z,4.10
2023-04-20T14:51:42.278Z,3.80
2023-04-20T14:54:11.052Z,3.33
2023-04-20T14:56:39.969Z,3.70
2023-04-20T14:59:08.760Z,3.53
2023-04-20T15:01:39.997Z,3.60
2023-04-20T15:04:13.652Z,4.40
2023-04-20T15:06:42.900Z,3.55
2023-04-20T15:09:11.759Z,3.80
2023-04-20T15:11:40.879Z,3.50
2023-04-20T15:14:09.682Z,3.70
2023-04-20T15:16:39.035Z,3.92
2023-04-20T15:19:07.808Z,4.05
2023-04-20T15:21:38.087Z,3.85
2023-04-20T15:24:07.946Z,4.28
2023-04-20T15:26:36.968Z,4.18
2023-04-20T15:29:05.782Z,4.20
2023-04-20T15:31:35.031Z,4.38
2023-04-20T15:34:03.863Z,4.35
2023-04-20T15:36:33.170Z,4.00
2023-04-20T15:39:03.867Z,3.97
2023-04-20T15:41:33.022Z,3.95
2023-04-20T15:44:01.746Z,3.88
2023-04-20T15:46:31.036Z,4.00
2023-04-20T15:48:59.850Z,3.97
2023-04-20T15:51:28.854Z,4.47
2023-04-20T15:53:58.214Z,4.53
2023-04-20T15:56:28.557Z,4.80
2023-04-20T15:58:57.236Z,4.72
2023-04-20T16:01:26.229Z,4.53
2023-04-20T16:03:55.239Z,4.78
2023-04-20T16:06:24.415Z,4.10
2023-04-20T16:08:54.112Z,4.95
2023-04-20T16:11:23.499Z,4.65
2023-04-20T16:13:53.969Z,4.05
2023-04-20T16:16:23.063Z,4.30
2023-04-20T16:18:52.225Z,4.90
2023-04-20T16:21:22.272Z,4.35
2023-04-20T16:23:54.205Z,5.00
2023-04-20T16:26:24.224Z,4.93
2023-04-20T16:28:54.462Z,5.57
2023-04-20T16:31:23.488Z,5.18
2023-04-20T16:33:52.153Z,5.13
2023-04-20T16:36:21.261Z,5.63
2023-04-20T16:38:49.919Z,5.65
2023-04-20T16:41:18.891Z,5.40
2023-04-20T16:43:47.654Z,5.30
2023-04-20T16:46:22.129Z,5.43
2023-04-20T16:48:52.017Z,5.25
2023-04-20T16:51:21.077Z,5.80
2023-04-20T16:53:50.334Z,5.90
2023-04-20T16:56:19.358Z,5.03
2023-04-20T16:58:48.086Z,6.13
2023-04-20T17:01:18.543Z,6.30
2023-04-20T17:03:47.927Z,6.00
2023-04-20T17:06:16.947Z,5.75
2023-04-20T17:08:45.626Z,6.15
2023-04-20T17:11:15.923Z,6.25
2023-04-20T17:13:44.684Z,6.05
2023-04-20T17:16:13.720Z,5.57
2023-04-20T17:18:43.739Z,5.97
2023-04-20T17:21:12.827Z,6.07
2023-04-20T17:23:42.008Z,5.88
2023-04-20T17:26:11.089Z,5.82
2023-04-20T17:28:39.840Z,5.93
2023-04-20T17:31:08.786Z,6.10
2023-04-20T17:33:37.670Z,6.03
2023-04-20T17:36:08.550Z,5.72
2023-04-20T17:38:38.521Z,6.00
2023-04-20T17:41:07.533Z,6.13
2023-04-20T17:43:40.302Z,6.45
2023-04-20T17:46:09.312Z,6.30
2023-04-20T17:48:38.142Z,5.75
2023-04-20T17:51:08.616Z,6.50
2023-04-20T17:53:37.238Z,6.05
2023-04-20T17:56:06.794Z,6.53
2023-04-20T17:58:35.498Z,6.55
2023-04-20T18:01:04.851Z,6.50
2023-04-20T18:03:34.007Z,6.90
2023-04-20T18:06:03.370Z,6.50
2023-04-20T18:08:34.540Z,6.38
2023-04-20T18:11:05.624Z,7.00
2023-04-20T18:13:34.279Z,6.88
2023-04-20T18:16:07.132Z,6.55
2023-04-20T18:18:36.245Z,6.95
2023-04-20T18:21:05.454Z,7.20
2023-04-20T18:23:35.668Z,7.15
2023-04-20T18:26:04.864Z,6.07
2023-04-20T18:28:33.586Z,6.45
2023-04-20T18:31:02.661Z,7.38
2023-04-20T18:33:31.475Z,7.10
2023-04-20T18:36:00.514Z,6.82
2023-04-20T18:38:29.141Z,7.22
2023-04-20T18:40:59.873Z,7.68
2023-04-20T18:43:28.670Z,7.75
2023-04-20T18:45:57.697Z,7.38
2023-04-20T18:48:26.474Z,8.75
2023-04-20T18:50:55.484Z,8.40
2023-04-20T18:53:24.229Z,7.82
2023-04-20T18:55:53.666Z,7.93
2023-04-20T18:58:23.775Z,7.88
2023-04-20T19:00:52.812Z,7.47
2023-04-20T19:03:21.756Z,7.90
2023-04-20T19:05:50.904Z,7.90
2023-04-20T19:08:19.977Z,8.35
2023-04-20T19:10:49.313Z,7.05
2023-04-20T19:13:18.010Z,7.50
2023-04-20T19:15:48.390Z,11.07
2023-04-20T19:18:17.303Z,15.30
2023-04-20T19:20:46.382Z,17.67
2023-04-20T19:23:15.089Z,11.80
2023-04-20T19:25:44.027Z,10.40
2023-04-20T19:28:13.080Z,11.02
2023-04-20T19:30:42.581Z,9.75
2023-04-20T19:33:12.737Z,9.70
2023-04-20T19:35:42.269Z,11.85
2023-04-20T19:38:10.948Z,10.77
2023-04-20T19:40:39.976Z,10.40
2023-04-20T19:43:08.642Z,8.80
2023-04-20T19:45:37.657Z,7.95
2023-04-20T19:48:06.898Z,7.85
2023-04-20T19:50:37.295Z,8.30
2023-04-20T19:53:06.374Z,7.72
2023-04-20T19:55:35.435Z,7.70
2023-04-20T19:58:09.092Z,8.52
2023-04-20T20:00:38.873Z,8.57
2023-04-20T20:03:08.522Z,9.25
2023-04-20T20:05:39.081Z,9.48
2023-04-20T20:08:07.821Z,9.38
2023-04-20T20:10:36.822Z,9.60
2023-04-20T20:13:05.800Z,9.43
2023-04-20T20:15:34.860Z,9.90
2023-04-20T20:18:03.749Z,10.18
2023-04-20T20:20:33.053Z,9.57
2023-04-20T20:23:03.171Z,10.38
2023-04-20T20:25:34.619Z,10.68
2023-04-20T20:28:04.084Z,10.45
2023-04-20T20:30:33.329Z,11.13
2023-04-20T20:33:02.043Z,10.80
2023-04-20T20:35:33.479Z,10.52
2023-04-20T20:38:06.312Z,9.80
2023-04-20T20:40:36.136Z,10.18
2023-04-20T20:43:05.351Z,9.90
2023-04-20T20:45:34.594Z,11.68
2023-04-20T20:48:03.359Z,10.30
2023-04-20T20:50:32.314Z,9.77
2023-04-20T20:53:01.026Z,10.68
2023-04-20T20:55:31.467Z,10.30
2023-04-20T20:58:00.130Z,10.38
2023-04-20T21:00:29.139Z,10.35
2023-04-20T21:02:58.947Z,10.63
2023-04-20T21:05:28.095Z,10.18
2023-04-20T21:07:56.837Z,10.10
2023-04-20T21:10:25.996Z,10.10
2023-04-20T21:12:56.116Z,10.40
2023-04-20T21:15:25.273Z,10.00
2023-04-20T21:17:54.029Z,9.85
2023-04-20T21:20:23.316Z,10.00
2023-04-20T21:22:52.090Z,9.88
2023-04-20T21:25:21.315Z,10.15
2023-04-20T21:27:49.980Z,10.40
2023-04-20T21:30:20.541Z,9.60
2023-04-20T21:32:49.202Z,9.70
2023-04-20T21:35:18.299Z,9.27
2023-04-20T21:37:47.013Z,10.10
2023-04-20T21:40:16.196Z,9.65
2023-04-20T21:42:44.888Z,10.15
2023-04-20T21:45:14.021Z,10.43
2023-04-20T21:47:44.239Z,9.27
2023-04-20T21:50:13.321Z,10.07
2023-04-20T21:52:41.993Z,9.95
2023-04-20T21:55:11.571Z,9.45
2023-04-20T21:57:40.280Z,9.45
2023-04-20T22:00:11.364Z,9.30
2023-04-20T22:02:50.215Z,9.30
2023-04-20T22:05:19.804Z,9.40
2023-04-20T22:07:48.521Z,9.27
2023-04-20T22:10:17.608Z,9.27
2023-04-20T22:12:46.483Z,9.32
2023-04-20T22:15:16.803Z,8.40
2023-04-20T22:17:47.694Z,9.32
2023-04-20T22:20:19.342Z,8.88
2023-04-20T22:22:48.277Z,9.30
2023-04-20T22:25:17.253Z,9.30
2023-04-20T22:27:46.689Z,9.10
2023-04-20T22:30:16.277Z,9.02
2023-04-20T22:32:45.061Z,9.50
2023-04-20T22:35:15.515Z,9.25
2023-04-20T22:37:44.167Z,9.38
2023-04-20T22:40:14.229Z,9.18
2023-04-20T22:42:43.090Z,9.88
2023-04-20T22:45:12.881Z,9.55
2023-04-20T22:47:42.547Z,9.18
2023-04-20T22:50:12.851Z,9.05
2023-04-20T22:52:42.868Z,9.40
2023-04-20T22:55:12.514Z,9.13
2023-04-20T22:57:41.198Z,7.97
2023-04-20T23:00:13.816Z,9.02
2023-04-20T23:02:42.935Z,8.68
2023-04-20T23:05:12.273Z,8.48
2023-04-20T23:07:45.270Z,9.07
2023-04-20T23:10:16.192Z,8.77
2023-04-20T23:12:46.926Z,8.60
2023-04-20T23:15:16.089Z,8.52
2023-04-20T23:17:44.760Z,8.65
2023-04-20T23:20:15.139Z,8.35
2023-04-20T23:22:45.188Z,8.13
2023-04-20T23:25:14.248Z,7.88
2023-04-20T23:27:43.028Z,8.38
2023-04-20T23:30:13.136Z,7.82
2023-04-20T23:32:43.877Z,8.32
2023-04-20T23:35:14.129Z,8.68
2023-04-20T23:37:44.120Z,8.95
2023-04-20T23:40:13.562Z,8.05
2023-04-20T23:42:42.198Z,7.35
2023-04-20T23:45:12.630Z,8.65
2023-04-20T23:47:41.422Z,8.32
2023-04-20T23:50:11.086Z,7.45
2023-04-20T23:52:40.646Z,8.68
2023-04-20T23:55:11.805Z,8.77
2023-04-20T23:57:40.617Z,7.88
